Time;durP1;ratioP1;P1;durP2;ratioP2;P2;SDS_P1;SDS_P2;PMS_P1;PMS_P2;Temp;Humidity;BMP_temperature;BMP_pressure;BME280_temperature;BME280_humidity;BME280_pressure;Samples;Min_cycle;Max_cycle;Signal;HPM_P1;HPM_P2
2023/05/26 00:02:02;;;;;;;16.50;4.95;;;;;;;15.83;47.51;102789.19;6159934;23;20025;-65
2023/05/26 00:04:31;;;;;;;20.67;4.90;;;;;;;15.82;47.57;102786.66;6161432;23;20125;-65
2023/05/26 00:06:59;;;;;;;24.10;4.60;;;;;;;15.81;47.66;102793.13;6163271;23;20029;-65
2023/05/26 00:09:28;;;;;;;22.73;5.55;;;;;;;15.78;47.50;102788.97;6163737;23;20348;-65
2023/05/26 00:11:56;;;;;;;19.92;4.07;;;;;;;15.78;47.78;102793.56;6161309;23;20036;-65
2023/05/26 00:14:24;;;;;;;21.08;5.32;;;;;;;15.76;47.73;102791.06;6161663;23;20353;-64
2023/05/26 00:16:53;;;;;;;24.05;5.72;;;;;;;15.75;47.78;102788.56;6161851;23;20057;-65
2023/05/26 00:19:21;;;;;;;21.15;5.10;;;;;;;15.71;47.69;102790.84;6161856;23;20367;-66
2023/05/26 00:21:49;;;;;;;20.13;4.90;;;;;;;15.72;47.83;102797.94;6159905;23;20032;-65
2023/05/26 00:24:16;;;;;;;23.98;5.10;;;;;;;15.71;47.87;102798.97;6182463;23;20072;-65
2023/05/26 00:26:46;;;;;;;19.15;4.68;;;;;;;15.71;47.77;102798.97;6190074;23;20025;-65
2023/05/26 00:29:13;;;;;;;18.88;5.03;;;;;;;15.69;47.83;102797.50;6191314;23;20083;-65
2023/05/26 00:31:56;;;;;;;23.13;5.07;;;;;;;15.67;48.14;102803.16;6190908;23;21182;-65
2023/05/26 00:34:24;;;;;;;20.52;4.78;;;;;;;15.66;48.10;102806.06;6190818;23;20064;-65
2023/05/26 00:36:52;;;;;;;19.70;5.57;;;;;;;15.63;47.96;102802.72;6190181;23;20056;-65
2023/05/26 00:39:20;;;;;;;19.95;4.35;;;;;;;15.62;47.92;102803.78;6190738;23;20029;-65
2023/05/26 00:41:49;;;;;;;20.50;4.90;;;;;;;15.61;48.12;102806.69;6188444;23;20083;-66
2023/05/26 00:44:17;;;;;;;18.98;4.50;;;;;;;15.59;47.88;102806.94;6189047;23;20035;-65
2023/05/26 00:46:45;;;;;;;21.33;5.00;;;;;;;15.53;48.15;102791.47;6190444;23;20024;-65
2023/05/26 00:49:12;;;;;;;18.90;4.15;;;;;;;15.53;48.11;102802.31;6190283;23;20056;-66
2023/05/26 00:51:41;;;;;;;16.15;5.88;;;;;;;15.50;48.26;102810.84;6190542;23;20028;-66
2023/05/26 00:54:09;;;;;;;19.60;5.53;;;;;;;15.47;48.32;102803.13;6189370;23;20123;-65
2023/05/26 00:56:37;;;;;;;19.45;4.90;;;;;;;15.43;48.73;102807.28;6188613;23;20455;-65
2023/05/26 00:59:06;;;;;;;23.70;4.60;;;;;;;15.42;48.39;102813.75;6190209;23;20029;-65
2023/05/26 01:01:34;;;;;;;23.83;6.78;;;;;;;15.42;48.22;102811.03;6190536;23;20084;-65
2023/05/26 01:04:02;;;;;;;24.00;5.70;;;;;;;15.40;48.52;102807.69;6190525;23;20029;-65
2023/05/26 01:06:31;;;;;;;21.50;5.32;;;;;;;15.38;48.31;102814.38;6191315;23;20025;-66
2023/05/26 01:09:00;;;;;;;22.15;5.20;;;;;;;15.36;48.43;102819.16;6191827;23;20031;-66
2023/05/26 01:11:32;;;;;;;19.63;4.88;;;;;;;15.35;48.58;102812.06;6190081;23;20025;-66
2023/05/26 01:14:06;;;;;;;18.13;4.88;;;;;;;15.33;48.71;102811.44;6190940;23;21198;-66
2023/05/26 01:16:54;;;;;;;18.85;4.50;;;;;;;15.32;48.82;102816.03;6191272;23;20087;-66
2023/05/26 01:19:50;;;;;;;19.90;5.25;;;;;;;15.32;48.66;102818.72;6191995;23;20072;-65
2023/05/26 01:22:24;;;;;;;22.33;5.95;;;;;;;15.30;48.83;102818.94;6189172;23;20025;-66
2023/05/26 01:25:01;;;;;;;19.92;5.70;;;;;;;15.28;48.58;102814.75;6192101;23;20029;-66
2023/05/26 01:27:45;;;;;;;17.60;5.20;;;;;;;15.28;48.84;102820.19;6191467;23;20087;-65
2023/05/26 01:30:15;;;;;;;21.40;5.43;;;;;;;15.25;48.89;102820.59;6192412;23;20028;-65
2023/05/26 01:32:47;;;;;;;24.88;5.65;;;;;;;15.22;48.61;102823.72;6192304;23;20059;-63
2023/05/26 01:35:15;;;;;;;21.42;5.15;;;;;;;15.21;48.99;102817.47;6192019;23;20108;-65
2023/05/26 01:37:45;;;;;;;16.10;4.68;;;;;;;15.20;48.89;102814.94;6192457;23;20029;-65
2023/05/26 01:40:14;;;;;;;23.73;7.03;;;;;;;15.19;48.83;102822.25;6190953;23;20024;-66
2023/05/26 01:42:51;;;;;;;26.00;6.25;;;;;;;15.21;49.04;102824.75;6192795;23;20025;-65
2023/05/26 01:45:24;;;;;;;22.02;5.53;;;;;;;15.19;48.87;102824.13;6191534;23;20141;-65
2023/05/26 01:47:56;;;;;;;22.70;4.80;;;;;;;15.16;48.74;102817.22;6192469;23;20029;-64
2023/05/26 01:50:30;;;;;;;19.65;5.18;;;;;;;15.16;48.79;102817.22;6191867;23;20481;-65
2023/05/26 01:53:04;;;;;;;18.83;4.55;;;;;;;15.13;49.18;102814.09;6192547;23;20124;-64
2023/05/26 01:55:34;;;;;;;24.10;4.63;;;;;;;15.11;48.87;102821.59;6190952;23;20080;-64
2023/05/26 01:58:03;;;;;;;18.67;3.67;;;;;;;15.08;48.76;102825.53;6191732;23;20428;-64
2023/05/26 02:00:32;;;;;;;17.73;5.15;;;;;;;15.06;49.17;102827.63;6191649;23;20083;-66
2023/05/26 02:03:00;;;;;;;16.83;4.40;;;;;;;15.05;49.26;102828.66;6191853;23;20025;-64
2023/05/26 02:05:28;;;;;;;25.17;6.15;;;;;;;15.05;48.92;102823.25;6191115;23;20029;-63
2023/05/26 02:07:55;;;;;;;23.50;6.03;;;;;;;15.04;49.21;102820.75;6192314;23;20029;-65
2023/05/26 02:10:23;;;;;;;24.13;5.93;;;;;;;15.02;48.94;102826.34;6191713;23;20025;-64
2023/05/26 02:12:51;;;;;;;19.67;4.55;;;;;;;15.00;49.03;102820.31;6193762;23;20024;-65
2023/05/26 02:15:19;;;;;;;17.23;5.15;;;;;;;14.98;49.20;102825.94;6193248;23;20029;-64
2023/05/26 02:17:48;;;;;;;18.92;5.75;;;;;;;14.96;49.35;102829.88;6194180;23;20025;-65
2023/05/26 02:20:16;;;;;;;18.98;4.38;;;;;;;14.94;49.21;102824.66;6192389;23;20040;-63
2023/05/26 02:22:45;;;;;;;18.02;4.70;;;;;;;14.91;49.11;102819.66;6193345;23;20021;-65
2023/05/26 02:25:12;;;;;;;20.92;5.07;;;;;;;14.92;48.93;102823.19;6192582;23;20095;-65
2023/05/26 02:27:40;;;;;;;19.42;5.30;;;;;;;14.89;49.19;102832.56;6192790;23;20025;-65
2023/05/26 02:30:09;;;;;;;21.85;5.55;;;;;;;14.87;49.28;102831.91;6193481;23;20035;-64
2023/05/26 02:32:37;;;;;;;18.00;4.18;;;;;;;14.85;49.28;102827.75;6193150;23;20033;-65
2023/05/26 02:35:07;;;;;;;23.90;5.13;;;;;;;14.84;49.19;102828.78;6193275;23;20075;-65
2023/05/26 02:37:35;;;;;;;21.10;4.57;;;;;;;14.83;49.24;102840.66;6192046;23;20029;-65
2023/05/26 02:40:05;;;;;;;23.58;5.25;;;;;;;14.81;49.73;102835.44;6190180;23;20024;-63
2023/05/26 02:42:33;;;;;;;25.85;6.28;;;;;;;14.79;49.42;102833.97;6192104;23;20375;-65
2023/05/26 02:45:01;;;;;;;20.67;5.63;;;;;;;14.77;49.21;102830.63;6190426;23;20087;-63
2023/05/26 02:47:28;;;;;;;24.73;5.82;;;;;;;14.76;49.62;102831.66;6192085;23;20024;-64
2023/05/26 02:49:56;;;;;;;25.58;4.82;;;;;;;14.73;49.55;102838.31;6191129;23;20051;-64
2023/05/26 02:52:25;;;;;;;21.90;4.35;;;;;;;14.72;49.60;102830.38;6191804;23;20031;-64
2023/05/26 02:54:53;;;;;;;20.15;5.90;;;;;;;14.71;49.46;102837.69;6190069;23;21202;-65
2023/05/26 02:57:22;;;;;;;25.45;6.68;;;;;;;14.69;49.42;102830.78;6190611;23;20021;-64
2023/05/26 02:59:50;;;;;;;20.10;4.57;;;;;;;14.66;49.32;102826.63;6192233;23;20029;-64
2023/05/26 03:02:17;;;;;;;21.88;5.93;;;;;;;14.63;49.34;102838.69;6192144;23;20025;-64
2023/05/26 03:04:45;;;;;;;21.35;5.18;;;;;;;14.64;49.58;102834.94;6190111;23;20029;-63
2023/05/26 03:07:13;;;;;;;21.00;4.25;;;;;;;14.65;49.45;102839.31;6191149;23;20077;-64
2023/05/26 03:09:42;;;;;;;15.70;4.93;;;;;;;14.62;49.46;102836.16;6190212;23;20039;-63
2023/05/26 03:12:12;;;;;;;21.33;5.43;;;;;;;14.61;49.34;102832.63;6188544;23;20033;-66
2023/05/26 03:14:40;;;;;;;18.33;4.50;;;;;;;14.58;49.48;102835.72;6189401;23;20104;-64
2023/05/26 03:17:08;;;;;;;22.35;6.20;;;;;;;14.57;49.41;102838.63;6190235;23;20025;-64
2023/05/26 03:19:36;;;;;;;28.45;5.65;;;;;;;14.56;49.59;102843.22;6190430;23;20025;-64
2023/05/26 03:22:03;;;;;;;22.33;5.10;;;;;;;14.55;49.49;102841.53;6190058;23;20037;-64
2023/05/26 03:24:53;;;;;;;21.08;5.95;;;;;;;14.51;49.21;102842.97;6189042;23;20025;-64
2023/05/26 03:27:22;;;;;;;21.13;4.40;;;;;;;14.48;49.40;102843.38;6189908;23;20025;-64
2023/05/26 03:29:50;;;;;;;24.83;5.50;;;;;;;14.47;49.41;102857.09;6190012;23;20076;-64
2023/05/26 03:32:18;;;;;;;23.23;5.57;;;;;;;14.45;49.32;102849.19;6188975;23;20033;-64
2023/05/26 03:34:45;;;;;;;21.73;4.85;;;;;;;14.41;49.53;102845.16;6189266;23;20025;-64
2023/05/26 03:37:15;;;;;;;24.67;4.97;;;;;;;14.42;49.76;102852.28;6189666;23;20024;-64
2023/05/26 03:39:42;;;;;;;26.10;6.55;;;;;;;14.42;49.52;102851.44;6190503;23;20025;-64
2023/05/26 03:42:12;;;;;;;19.55;5.38;;;;;;;14.41;49.45;102852.44;6189972;23;20021;-64
2023/05/26 03:44:39;;;;;;;21.50;5.47;;;;;;;14.39;49.83;102857.22;6192079;23;20029;-64
2023/05/26 03:47:09;;;;;;;21.98;5.50;;;;;;;14.38;49.98;102860.97;6191518;23;20900;-64
2023/05/26 03:49:37;;;;;;;24.92;5.43;;;;;;;14.35;49.96;102867.59;6192793;23;20056;-64
2023/05/26 03:52:05;;;;;;;26.23;5.32;;;;;;;14.33;49.91;102853.44;6191094;23;20620;-63
2023/05/26 03:54:33;;;;;;;21.25;4.95;;;;;;;14.31;49.83;102863.63;6190680;23;20332;-64
2023/05/26 03:57:01;;;;;;;25.90;5.15;;;;;;;14.29;49.85;102876.50;6189983;23;20044;-63
2023/05/26 03:59:30;;;;;;;27.63;6.20;;;;;;;14.26;49.60;102864.22;6191519;23;20055;-64
2023/05/26 04:01:58;;;;;;;26.27;5.53;;;;;;;14.23;49.76;102871.88;6191825;23;20072;-64
2023/05/26 04:04:26;;;;;;;17.40;4.78;;;;;;;14.22;50.01;102871.06;6193455;23;20159;-62
2023/05/26 04:06:55;;;;;;;20.00;5.05;;;;;;;14.21;49.66;102863.13;6194149;23;20370;-64
2023/05/26 04:09:23;;;;;;;19.90;5.07;;;;;;;14.20;49.83;102869.56;6192317;23;20067;-63
2023/05/26 04:11:50;;;;;;;18.60;4.97;;;;;;;14.18;49.67;102868.94;6191469;23;20023;-64
2023/05/26 04:14:18;;;;;;;19.48;5.90;;;;;;;14.16;50.20;102871.84;6192027;23;20040;-64
2023/05/26 04:16:48;;;;;;;21.85;6.00;;;;;;;14.14;50.04;102873.91;6194324;23;20439;-64
2023/05/26 04:19:16;;;;;;;19.35;4.85;;;;;;;14.14;49.90;102868.50;6192798;23;20048;-64
2023/05/26 04:21:44;;;;;;;23.83;5.90;;;;;;;14.13;50.10;102868.69;6193175;23;20032;-64
2023/05/26 04:24:12;;;;;;;18.48;5.07;;;;;;;14.14;50.03;102868.50;6192999;23;20024;-64
2023/05/26 04:26:40;;;;;;;26.00;5.10;;;;;;;14.13;49.85;102866.81;6192831;23;20025;-64
2023/05/26 04:29:08;;;;;;;21.50;5.53;;;;;;;14.14;49.75;102875.75;6191833;23;20025;-66
2023/05/26 04:31:40;;;;;;;24.70;5.55;;;;;;;14.10;49.91;102872.63;6192631;23;20025;-64
2023/05/26 04:34:10;;;;;;;22.15;5.50;;;;;;;14.08;49.78;102876.53;6192893;23;20029;-64
2023/05/26 04:36:39;;;;;;;16.83;4.85;;;;;;;14.06;49.89;102876.75;6191547;23;20033;-64
2023/05/26 04:39:07;;;;;;;23.75;4.60;;;;;;;14.06;50.07;102884.03;6192792;23;20032;-65
2023/05/26 04:41:34;;;;;;;19.60;4.95;;;;;;;14.05;49.94;102885.88;6191295;23;20509;-65
2023/05/26 04:44:02;;;;;;;21.70;5.05;;;;;;;14.05;49.97;102885.06;6193267;23;20025;-64
2023/05/26 04:46:30;;;;;;;21.80;4.68;;;;;;;14.05;49.86;102888.59;6193030;23;20043;-63
2023/05/26 04:48:58;;;;;;;23.35;5.05;;;;;;;14.04;50.26;102888.78;6192355;23;20486;-63
2023/05/26 04:51:27;;;;;;;20.73;4.95;;;;;;;14.01;50.12;102892.72;6192045;23;20033;-64
2023/05/26 04:53:55;;;;;;;15.57;5.60;;;;;;;13.98;50.35;102896.63;6193214;23;20024;-64
2023/05/26 04:56:23;;;;;;;16.50;4.75;;;;;;;13.98;49.98;102890.41;6191363;23;20418;-64
2023/05/26 04:58:51;;;;;;;25.80;5.18;;;;;;;13.96;50.04;102896.00;6192807;23;20029;-64
2023/05/26 05:01:19;;;;;;;17.50;4.93;;;;;;;13.97;50.04;102886.84;6192057;23;20029;-64
2023/05/26 05:03:46;;;;;;;23.38;5.90;;;;;;;13.96;49.98;102896.00;6192881;23;20046;-64
2023/05/26 05:06:14;;;;;;;20.98;6.22;;;;;;;13.97;50.03;102894.97;6192162;23;20088;-64
2023/05/26 05:08:43;;;;;;;20.42;5.00;;;;;;;13.97;50.50;102902.25;6192865;23;20032;-65
2023/05/26 05:11:12;;;;;;;16.08;4.30;;;;;;;13.98;50.05;102895.81;6190653;23;20025;-64
2023/05/26 05:13:39;;;;;;;20.45;5.90;;;;;;;13.99;50.19;102900.19;6191342;23;20083;-63
2023/05/26 05:16:07;;;;;;;19.27;5.25;;;;;;;13.97;50.42;102894.97;6191034;23;20032;-64
2023/05/26 05:18:35;;;;;;;20.67;5.43;;;;;;;13.99;50.29;102903.72;6193653;23;20032;-64
2023/05/26 05:21:03;;;;;;;24.13;6.35;;;;;;;14.01;50.12;102898.13;6191762;23;20056;-63
2023/05/26 05:23:34;;;;;;;20.90;5.22;;;;;;;14.04;50.53;102899.59;6191822;23;20077;-64
2023/05/26 05:26:03;;;;;;;21.25;5.78;;;;;;;14.05;50.07;102899.41;6183496;23;20025;-64
2023/05/26 05:28:31;;;;;;;25.20;5.65;;;;;;;14.06;49.96;102906.47;6190804;23;20066;-64
2023/05/26 05:30:59;;;;;;;21.17;6.00;;;;;;;14.07;50.40;102910.03;6190248;23;20029;-64
2023/05/26 05:33:27;;;;;;;22.92;5.38;;;;;;;14.07;50.29;102916.28;6190191;23;20025;-62
2023/05/26 05:35:55;;;;;;;19.58;5.05;;;;;;;14.08;50.09;102907.13;6190574;23;20021;-63
2023/05/26 05:38:23;;;;;;;22.98;5.00;;;;;;;14.00;50.22;102900.00;6190481;23;20045;-67
2023/05/26 05:40:51;;;;;;;17.80;4.32;;;;;;;14.07;50.40;102912.72;6190761;23;20087;-69
2023/05/26 05:43:20;;;;;;;18.40;5.68;;;;;;;14.06;50.50;102906.47;6191340;23;20025;-65
2023/05/26 05:45:48;;;;;;;21.05;5.57;;;;;;;14.08;50.61;102906.28;6188805;23;20048;-66
2023/05/26 05:48:16;;;;;;;23.42;6.55;;;;;;;14.08;50.44;102903.59;6188705;23;20083;-66
2023/05/26 05:50:44;;;;;;;20.23;5.55;;;;;;;14.10;50.38;102912.34;6188867;23;20021;-66
2023/05/26 05:53:14;;;;;;;22.95;5.40;;;;;;;14.10;50.31;102910.47;6188692;23;20025;-65
2023/05/26 05:55:43;;;;;;;19.25;5.45;;;;;;;14.12;50.29;102911.13;6187732;23;20025;-63
2023/05/26 05:58:11;;;;;;;20.90;5.03;;;;;;;14.14;50.50;102916.31;6189155;23;20024;-65
2023/05/26 06:00:40;;;;;;;20.20;4.68;;;;;;;14.14;50.66;102917.16;6183638;23;20305;-66
2023/05/26 06:03:08;;;;;;;24.80;5.68;;;;;;;14.16;50.63;102922.38;6185161;23;20132;-62
2023/05/26 06:05:36;;;;;;;22.17;5.32;;;;;;;14.18;50.33;102928.44;6184053;23;20040;-64
2023/05/26 06:08:04;;;;;;;17.85;5.78;;;;;;;14.18;50.33;102931.97;6182986;23;20072;-63
2023/05/26 06:10:31;;;;;;;20.42;4.80;;;;;;;14.18;50.55;102928.44;6181238;23;20024;-63
2023/05/26 06:12:59;;;;;;;24.35;5.90;;;;;;;14.19;50.60;102946.31;6184137;23;20063;-63
2023/05/26 06:15:27;;;;;;;23.70;5.82;;;;;;;14.21;50.59;102928.88;6183532;23;20029;-62
2023/05/26 06:17:56;;;;;;;22.60;5.80;;;;;;;14.23;50.66;102936.78;6184516;23;20029;-62
2023/05/26 06:20:25;;;;;;;18.13;4.82;;;;;;;14.25;50.50;102932.03;6184832;23;20029;-61
2023/05/26 06:22:53;;;;;;;21.38;5.18;;;;;;;14.28;50.56;102931.63;6185135;23;20029;-61
2023/05/26 06:25:21;;;;;;;15.98;4.97;;;;;;;14.31;50.36;102939.34;6184163;23;20028;-61
2023/05/26 06:27:48;;;;;;;17.38;4.40;;;;;;;14.33;50.29;102945.41;6185734;23;20028;-61
2023/05/26 06:30:16;;;;;;;21.20;5.15;;;;;;;14.33;50.45;102940.84;6187181;23;20025;-62
2023/05/26 06:32:44;;;;;;;19.45;5.00;;;;;;;14.37;50.27;102949.41;6187481;23;20033;-62
2023/05/26 06:35:13;;;;;;;18.10;4.80;;;;;;;14.37;50.62;102940.44;6185128;23;20037;-63
2023/05/26 06:37:41;;;;;;;21.25;4.68;;;;;;;14.39;50.32;102946.50;6187631;23;20025;-61
2023/05/26 06:40:09;;;;;;;19.08;5.57;;;;;;;14.39;50.33;102941.91;6185939;23;20094;-62
2023/05/26 06:42:37;;;;;;;18.10;4.57;;;;;;;14.39;50.45;102944.63;6184658;23;20038;-61
2023/05/26 06:45:06;;;;;;;18.63;5.25;;;;;;;14.42;50.46;102943.44;6184197;23;20025;-62
2023/05/26 06:47:34;;;;;;;18.42;5.53;;;;;;;14.41;50.50;102941.72;6183216;23;20383;-62
2023/05/26 06:50:02;;;;;;;33.42;5.68;;;;;;;14.43;50.80;102948.66;6183106;23;20029;-62
2023/05/26 06:52:31;;;;;;;15.50;4.25;;;;;;;14.44;50.73;102938.66;6183954;23;20025;-62
2023/05/26 06:54:59;;;;;;;16.83;4.50;;;;;;;14.45;50.29;102948.44;6184117;23;20029;-63
2023/05/26 06:57:27;;;;;;;17.67;5.30;;;;;;;14.45;50.74;102946.59;6183634;23;20028;-63
2023/05/26 06:59:54;;;;;;;23.30;6.22;;;;;;;14.47;50.76;102947.22;6183671;23;20029;-62
2023/05/26 07:02:22;;;;;;;14.68;4.55;;;;;;;14.48;50.40;102948.91;6184102;23;20033;-62
2023/05/26 07:04:50;;;;;;;21.35;5.25;;;;;;;14.49;50.41;102953.28;6184872;23;20025;-63
2023/05/26 07:07:18;;;;;;;21.13;5.35;;;;;;;14.50;50.65;102951.41;6184584;23;20025;-62
2023/05/26 07:09:47;;;;;;;22.83;5.25;;;;;;;14.49;50.39;102947.84;6185209;23;20029;-62
2023/05/26 07:12:15;;;;;;;22.67;5.18;;;;;;;14.50;50.77;102946.00;6183803;23;20726;-63
2023/05/26 07:14:43;;;;;;;24.02;5.75;;;;;;;14.51;50.50;102942.25;6184955;23;20033;-63
2023/05/26 07:17:10;;;;;;;20.50;4.78;;;;;;;14.52;50.36;102947.47;6186991;23;20392;-63
2023/05/26 07:19:38;;;;;;;17.40;4.70;;;;;;;14.54;50.66;102949.97;6187100;23;20033;-63
2023/05/26 07:22:06;;;;;;;22.83;5.82;;;;;;;14.55;50.61;102951.66;6187305;23;20092;-63
2023/05/26 07:24:34;;;;;;;18.63;4.05;;;;;;;14.53;50.31;102949.16;6187666;23;20039;-63
2023/05/26 07:27:03;;;;;;;25.40;7.15;;;;;;;14.54;50.66;102953.53;6185304;23;20528;-63
2023/05/26 07:29:33;;;;;;;28.73;6.55;;;;;;;14.53;50.56;102953.72;6186637;23;20039;-63
2023/05/26 07:32:01;;;;;;;19.65;4.47;;;;;;;14.52;50.44;102952.03;6186657;23;20065;-63
2023/05/26 07:34:29;;;;;;;16.90;5.13;;;;;;;14.52;50.11;102946.63;6187606;23;20045;-63
2023/05/26 07:36:57;;;;;;;20.23;4.88;;;;;;;14.52;50.60;102946.63;6186958;23;20025;-63
2023/05/26 07:39:25;;;;;;;17.23;4.15;;;;;;;14.54;50.36;102948.09;6187144;23;20029;-63
2023/05/26 07:41:52;;;;;;;19.80;4.75;;;;;;;14.56;50.73;102947.91;6187542;23;20035;-62
2023/05/26 07:44:22;;;;;;;18.08;4.35;;;;;;;14.57;50.62;102950.41;6189111;23;20029;-63
2023/05/26 07:46:49;;;;;;;23.85;5.32;;;;;;;14.57;50.53;102950.41;6189489;23;20062;-62
2023/05/26 07:49:17;;;;;;;22.60;5.40;;;;;;;14.57;50.31;102955.00;6189433;23;20025;-63
2023/05/26 07:51:45;;;;;;;21.30;6.00;;;;;;;14.58;50.74;102954.81;6189905;23;20327;-62
2023/05/26 07:54:13;;;;;;;19.40;4.90;;;;;;;14.59;50.56;102947.53;6189947;23;20032;-63
2023/05/26 07:56:41;;;;;;;16.88;4.18;;;;;;;14.58;50.39;102952.09;6188755;23;20083;-62
2023/05/26 07:59:09;;;;;;;20.58;5.28;;;;;;;14.58;50.46;102954.81;6190807;23;20025;-63
2023/05/26 08:01:38;;;;;;;27.83;6.55;;;;;;;14.58;50.34;102957.50;6190263;23;20029;-63
2023/05/26 08:04:06;;;;;;;23.48;4.97;;;;;;;14.61;50.51;102958.97;6190736;23;20021;-63
2023/05/26 08:06:35;;;;;;;23.67;5.90;;;;;;;14.62;50.83;102963.38;6188335;23;20028;-62
2023/05/26 08:09:03;;;;;;;26.95;6.00;;;;;;;14.62;50.37;102956.09;6190825;23;20072;-62
2023/05/26 08:11:31;;;;;;;18.42;6.20;;;;;;;14.62;50.43;102966.91;6190026;23;20025;-63
2023/05/26 08:13:59;;;;;;;20.15;5.45;;;;;;;14.62;50.40;102957.94;6190054;23;20112;-62
2023/05/26 08:16:26;;;;;;;21.77;5.65;;;;;;;14.62;50.73;102960.66;6190499;23;20064;-62
2023/05/26 08:18:56;;;;;;;23.13;6.05;;;;;;;14.63;50.62;102960.47;6190420;23;20077;-62
2023/05/26 08:21:23;;;;;;;18.45;4.60;;;;;;;14.65;50.78;102969.22;6188218;23;20025;-63
2023/05/26 08:23:51;;;;;;;20.27;5.35;;;;;;;14.66;50.53;102953.81;6188425;23;20033;-62
2023/05/26 08:26:19;;;;;;;22.45;5.60;;;;;;;14.67;50.40;102962.78;6189082;23;20029;-63
2023/05/26 08:28:47;;;;;;;17.20;4.90;;;;;;;14.69;50.75;102958.00;6191986;23;20032;-62
2023/05/26 08:31:15;;;;;;;20.38;5.13;;;;;;;14.71;50.52;102954.06;6191157;23;20032;-65
2023/05/26 08:33:43;;;;;;;18.67;4.65;;;;;;;14.74;50.80;102956.38;6190302;23;20029;-66
2023/05/26 08:36:12;;;;;;;16.52;4.68;;;;;;;14.76;50.83;102940.78;6190185;23;20111;-65
2023/05/26 08:38:40;;;;;;;22.33;5.45;;;;;;;14.78;50.94;102944.13;6189912;23;20509;-63
2023/05/26 08:41:08;;;;;;;19.35;5.22;;;;;;;14.80;50.10;102944.75;6187138;23;20036;-64
2023/05/26 08:43:45;;;;;;;20.95;5.10;;;;;;;14.82;50.64;102934.56;6190499;23;20516;-65
2023/05/26 08:46:32;;;;;;;12.93;4.43;;;;;;;14.84;50.36;102954.16;6191214;23;20332;-65
2023/05/26 08:49:01;;;;;;;16.35;5.95;;;;;;;14.87;50.42;102939.38;6191225;23;20056;-65
2023/05/26 08:51:36;;;;;;;18.00;5.75;;;;;;;14.88;50.38;102939.19;6189819;23;20024;-64
2023/05/26 08:54:04;;;;;;;19.30;4.55;;;;;;;14.91;50.11;102944.19;6190950;23;20048;-64
2023/05/26 08:56:33;;;;;;;18.35;4.82;;;;;;;14.93;50.06;102935.88;6189404;23;20095;-64
2023/05/26 08:59:03;;;;;;;20.70;4.47;;;;;;;14.94;50.15;102934.84;6190316;23;20029;-65
2023/05/26 09:01:30;;;;;;;17.13;4.40;;;;;;;14.96;50.42;102936.31;6189342;23;20025;-64
2023/05/26 09:03:58;;;;;;;17.02;5.80;;;;;;;15.00;50.21;102938.63;6189949;23;20029;-63
2023/05/26 09:06:26;;;;;;;20.45;4.50;;;;;;;15.03;50.07;102943.63;6189153;23;20450;-64
2023/05/26 09:08:55;;;;;;;16.42;4.68;;;;;;;15.06;50.35;102946.78;6190211;23;20028;-63
2023/05/26 09:11:25;;;;;;;13.73;4.60;;;;;;;15.07;50.13;102948.44;6188454;23;20025;-65
2023/05/26 09:13:54;;;;;;;13.35;4.38;;;;;;;15.08;50.09;102950.13;6189140;23;20104;-64
2023/05/26 09:16:24;;;;;;;15.80;4.68;;;;;;;15.09;49.70;102953.66;6189887;23;20025;-64
2023/05/26 09:18:57;;;;;;;15.30;5.25;;;;;;;15.09;49.82;102948.25;6191983;23;20045;-64
2023/05/26 09:21:26;;;;;;;16.77;5.68;;;;;;;15.08;49.53;102949.28;6190464;23;20048;-64
2023/05/26 09:23:56;;;;;;;14.77;4.95;;;;;;;15.09;49.57;102945.53;6192363;23;20024;-65
2023/05/26 09:26:30;;;;;;;13.90;3.90;;;;;;;15.09;49.75;102949.09;6189027;23;20024;-64
2023/05/26 09:28:58;;;;;;;16.58;4.00;;;;;;;15.12;49.37;102950.56;6189654;23;20029;-64
2023/05/26 09:31:26;;;;;;;15.88;4.63;;;;;;;15.11;49.24;102949.72;6189661;23;20024;-64
2023/05/26 09:33:54;;;;;;;14.82;4.63;;;;;;;15.14;49.44;102951.19;6189332;23;20055;-64
2023/05/26 09:36:25;;;;;;;21.30;5.85;;;;;;;15.14;49.56;102943.06;6189749;23;20424;-64
2023/05/26 09:38:53;;;;;;;19.67;4.63;;;;;;;15.21;48.26;102946.66;6189798;23;20091;-62
2023/05/26 09:41:34;;;;;;;13.77;4.18;;;;;;;15.19;49.17;102954.13;6188468;23;20024;-62
2023/05/26 09:44:08;;;;;;;16.50;4.68;;;;;;;15.20;49.20;102950.38;6189829;23;20140;-65
2023/05/26 09:46:36;;;;;;;15.43;4.22;;;;;;;15.21;49.22;102944.78;6191290;23;20366;-60
2023/05/26 09:49:09;;;;;;;18.77;4.60;;;;;;;15.22;48.88;102954.56;6190773;23;20029;-65
2023/05/26 09:51:37;;;;;;;22.45;5.30;;;;;;;15.21;48.57;102952.91;6191162;23;20028;-62
2023/05/26 09:54:05;;;;;;;17.95;4.75;;;;;;;15.21;48.79;102938.50;6190468;23;20025;-64
2023/05/26 09:56:35;;;;;;;15.35;3.70;;;;;;;15.24;49.06;102946.25;6189656;23;20025;-62
2023/05/26 09:59:05;;;;;;;15.77;4.53;;;;;;;15.26;48.97;102930.63;6191980;23;20025;-64
2023/05/26 10:01:36;;;;;;;15.73;4.13;;;;;;;15.29;48.69;102947.31;6191299;23;20138;-64
2023/05/26 10:04:07;;;;;;;16.70;4.32;;;;;;;15.33;48.87;102952.31;6190825;23;20046;-67
2023/05/26 10:06:36;;;;;;;15.77;4.30;;;;;;;15.37;48.47;102945.47;6189351;23;20033;-66
2023/05/26 10:09:06;;;;;;;14.10;4.35;;;;;;;15.40;48.36;102934.22;6189905;23;20025;-69
2023/05/26 10:11:39;;;;;;;13.93;4.00;;;;;;;15.40;48.73;102935.06;6187897;23;20028;-66
2023/05/26 10:14:07;;;;;;;18.17;4.15;;;;;;;15.46;48.11;102941.53;6189296;23;20056;-63
2023/05/26 10:16:36;;;;;;;17.13;5.28;;;;;;;15.45;47.68;102932.56;6189864;23;20463;-63
2023/05/26 10:19:05;;;;;;;16.30;4.70;;;;;;;15.49;48.41;102928.41;6189447;23;20497;-62
2023/05/26 10:21:39;;;;;;;12.65;4.43;;;;;;;15.51;47.81;102926.34;6190126;23;20029;-62
2023/05/26 10:24:11;;;;;;;17.40;4.68;;;;;;;15.52;47.75;102919.03;6189300;23;20144;-63
2023/05/26 10:26:52;;;;;;;20.00;3.80;;;;;;;15.53;47.88;102926.97;6188758;23;20033;-62
2023/05/26 10:29:27;;;;;;;13.38;3.55;;;;;;;15.60;48.10;102927.03;6189568;23;20032;-62
2023/05/26 10:31:55;;;;;;;14.27;4.22;;;;;;;15.66;47.86;102919.91;6189636;23;20106;-61
2023/05/26 10:34:37;;;;;;;15.35;4.25;;;;;;;15.70;47.77;102921.16;6189745;23;20045;-63
2023/05/26 10:37:14;;;;;;;14.15;4.20;;;;;;;15.72;47.57;102917.22;6189017;23;20025;-63
2023/05/26 10:39:42;;;;;;;19.02;4.72;;;;;;;15.72;47.05;102917.22;6190039;23;20025;-63
2023/05/26 10:42:19;;;;;;;17.27;4.15;;;;;;;15.75;47.13;102927.66;6188416;23;20028;-65
2023/05/26 10:44:51;;;;;;;21.88;5.55;;;;;;;15.79;47.08;102928.91;6189937;23;20029;-64
2023/05/26 10:47:20;;;;;;;18.30;4.25;;;;;;;15.86;47.18;102926.22;6188527;23;20406;-65
2023/05/26 10:49:56;;;;;;;14.93;4.28;;;;;;;15.89;46.64;102926.63;6189833;23;20033;-65
2023/05/26 10:52:26;;;;;;;16.77;5.05;;;;;;;15.91;46.64;102921.00;6188130;23;20028;-65
2023/05/26 10:54:54;;;;;;;18.15;4.22;;;;;;;15.91;45.92;102916.41;6188484;23;20024;-65
2023/05/26 10:57:31;;;;;;;13.45;3.70;;;;;;;15.91;46.44;102908.28;6186928;23;20025;-65
2023/05/26 10:59:59;;;;;;;13.70;3.75;;;;;;;15.97;47.06;102917.47;6188533;23;20032;-62
2023/05/26 11:02:27;;;;;;;15.95;4.13;;;;;;;16.02;46.53;102922.25;6188960;23;20024;-65
2023/05/26 11:04:55;;;;;;;20.38;4.10;;;;;;;16.04;45.98;102915.59;6189722;23;20651;-64
2023/05/26 11:07:24;;;;;;;17.48;4.90;;;;;;;16.05;45.77;102911.00;6188104;23;20100;-66
2023/05/26 11:09:59;;;;;;;12.73;3.85;;;;;;;16.06;45.81;102902.66;6190598;23;20081;-64
2023/05/26 11:12:34;;;;;;;13.90;3.95;;;;;;;16.09;45.44;102912.25;6189701;23;20024;-67
2023/05/26 11:15:24;;;;;;;15.23;4.03;;;;;;;16.13;45.26;102902.66;6185304;23;20139;-65
2023/05/26 11:17:57;;;;;;;14.18;4.22;;;;;;;16.15;45.27;102900.56;6187499;23;20025;-65
2023/05/26 11:20:25;;;;;;;14.32;4.30;;;;;;;16.18;44.96;102908.28;6187078;23;20029;-66
2023/05/26 11:22:53;;;;;;;17.15;4.40;;;;;;;16.25;44.49;102898.28;6187764;23;20509;-66
2023/05/26 11:25:21;;;;;;;11.57;3.63;;;;;;;16.28;44.79;102898.69;6186508;23;20039;-65
2023/05/26 11:27:51;;;;;;;10.85;3.75;;;;;;;16.36;45.00;102894.09;6188454;23;20084;-65